Time;durP1;ratioP1;P1;durP2;ratioP2;P2;SDS_P1;SDS_P2;PMS_P1;PMS_P2;Temp;Humidity;BMP_temperature;BMP_pressure;BME280_temperature;BME280_humidity;BME280_pressure;Samples;Min_cycle;Max_cycle;Signal;HPM_P1;HPM_P2
2022/10/30 00:00:48;;;;;;;;;;;;;;;18.16;48.65;101523.41;4958871;28;2281;-51
2022/10/30 00:03:14;;;;;;;;;;;;;;;17.30;52.89;101526.03;4958875;28;1090;-51
2022/10/30 00:05:42;;;;;;;;;;;;;;;16.21;54.29;101529.34;4959337;28;1240;-50
2022/10/30 00:08:08;;;;;;;;;;;;;;;16.75;49.96;101519.66;4959038;28;1180;-49
2022/10/30 00:10:34;;;;;;;;;;;;;;;16.79;48.34;101520.78;4958887;28;1161;-49
2022/10/30 00:12:59;;;;;;;;;;;;;;;17.53;50.31;101518.53;4958964;28;1449;-51
2022/10/30 00:15:25;;;;;;;;;;;;;;;17.09;50.22;101514.81;4958811;28;1196;-50
2022/10/30 00:17:50;;;;;;;;;;;;;;;16.80;48.87;101508.69;4958813;28;1229;-51
2022/10/30 00:20:15;;;;;;;;;;;;;;;16.63;47.92;101510.69;4958893;28;1972;-49
2022/10/30 00:22:41;;;;;;;;;;;;;;;17.28;48.75;101508.97;4958474;28;1102;-49
2022/10/30 00:25:06;;;;;;;;;;;;;;;17.19;49.44;101505.84;4959131;28;1145;-49
2022/10/30 00:27:32;;;;;;;;;;;;;;;16.83;48.57;101496.38;4958219;28;1153;-51
2022/10/30 00:29:57;;;;;;;;;;;;;;;17.97;49.15;101501.84;4958354;28;2062;-50
2022/10/30 00:32:23;;;;;;;;;;;;;;;17.19;49.39;101510.53;4979980;28;1634;-51
2022/10/30 00:34:49;;;;;;;;;;;;;;;18.45;49.26;101497.16;4954191;29;1110;-49
2022/10/30 00:37:14;;;;;;;;;;;;;;;15.56;56.70;101503.41;4958116;28;1118;-50
2022/10/30 00:39:40;;;;;;;;;;;;;;;16.10;52.90;101499.31;4957768;28;1146;-50
2022/10/30 00:42:08;;;;;;;;;;;;;;;17.20;51.71;101493.75;4944801;28;1918;-50
2022/10/30 00:44:35;;;;;;;;;;;;;;;17.05;51.11;101493.63;4961487;28;1168;-51
2022/10/30 00:47:04;;;;;;;;;;;;;;;16.81;49.64;101491.13;4956531;29;1111;-50
2022/10/30 00:49:33;;;;;;;;;;;;;;;17.64;50.25;101495.50;4958108;28;1157;-48
2022/10/30 00:51:58;;;;;;;;;;;;;;;17.01;49.80;101489.72;4984500;28;1316;-48
2022/10/30 00:54:24;;;;;;;;;;;;;;;16.95;49.82;101483.34;4964068;28;1101;-50
2022/10/30 00:56:49;;;;;;;;;;;;;;;17.42;50.19;101481.88;4951775;29;1146;-51
2022/10/30 00:59:16;;;;;;;;;;;;;;;17.04;49.13;101480.97;4957773;28;2220;-52
2022/10/30 01:01:42;;;;;;;;;;;;;;;18.45;49.42;101474.28;4958179;28;1979;-51
2022/10/30 01:04:07;;;;;;;;;;;;;;;17.44;50.18;101472.25;4957981;28;1239;-49
2022/10/30 01:06:34;;;;;;;;;;;;;;;17.21;49.09;101478.13;4978150;28;1231;-49
2022/10/30 01:09:00;;;;;;;;;;;;;;;17.16;49.04;101469.81;4954966;29;1087;-51
2022/10/30 01:11:26;;;;;;;;;;;;;;;17.32;49.55;101457.88;4940931;29;1153;-51
2022/10/30 01:13:51;;;;;;;;;;;;;;;16.98;48.66;101463.59;4957769;28;1213;-51
2022/10/30 01:16:21;;;;;;;;;;;;;;;18.26;49.16;101460.16;4957901;28;1039;-52
2022/10/30 01:18:54;;;;;;;;;;;;;;;17.34;49.79;101457.63;4957084;29;1166;-51
2022/10/30 01:21:38;;;;;;;;;;;;;;;16.99;48.56;101459.78;4945225;29;1918;-51
2022/10/30 01:24:09;;;;;;;;;;;;;;;16.97;48.04;101461.97;4957468;28;1318;-49
2022/10/30 01:26:49;;;;;;;;;;;;;;;17.37;49.27;101446.09;4957753;28;1161;-48
2022/10/30 01:29:35;;;;;;;;;;;;;;;16.95;48.42;101458.63;4984952;28;2710;-50
2022/10/30 01:32:19;;;;;;;;;;;;;;;18.23;48.88;101457.94;4962697;28;1263;-50
2022/10/30 01:34:46;;;;;;;;;;;;;;;17.29;49.30;101463.88;4958175;29;1150;-51
2022/10/30 01:37:24;;;;;;;;;;;;;;;17.03;48.10;101458.16;4972087;28;1230;-52
2022/10/30 01:39:50;;;;;;;;;;;;;;;16.92;47.25;101450.91;4973693;28;1195;-50
2022/10/30 01:42:35;;;;;;;;;;;;;;;17.45;48.32;101454.69;4963183;29;1918;-50
2022/10/30 01:45:01;;;;;;;;;;;;;;;16.97;48.61;101453.72;4962754;28;1257;-52
2022/10/30 01:47:33;;;;;;;;;;;;;;;16.92;47.32;101448.16;4978975;28;1141;-51
2022/10/30 01:50:21;;;;;;;;;;;;;;;16.76;46.56;101455.41;4963503;28;1157;-52
2022/10/30 01:52:48;;;;;;;;;;;;;;;18.19;47.97;101443.91;4980518;28;911;-51
2022/10/30 01:55:20;;;;;;;;;;;;;;;17.16;48.96;101442.34;4991031;28;1176;-51
2022/10/30 01:57:53;;;;;;;;;;;;;;;18.36;48.71;101453.88;4962735;29;1171;-52
2022/10/30 02:00:19;;;;;;;;;;;;;;;17.97;49.36;101441.31;4978514;28;2707;-49
2022/10/30 02:02:47;;;;;;;;;;;;;;;17.32;49.09;101440.53;4963645;28;1109;-51
2022/10/30 02:05:27;;;;;;;;;;;;;;;17.12;48.04;101442.03;4946409;29;1439;-51
2022/10/30 02:07:53;;;;;;;;;;;;;;;17.09;48.23;101448.88;4967110;28;1454;-50
2022/10/30 02:10:19;;;;;;;;;;;;;;;17.86;49.37;101447.81;4964828;28;1273;-51
2022/10/30 02:12:44;;;;;;;;;;;;;;;17.22;49.27;101442.13;4975540;28;1383;-52
2022/10/30 02:15:10;;;;;;;;;;;;;;;17.00;47.98;101438.59;4954509;29;1253;-48
2022/10/30 02:17:37;;;;;;;;;;;;;;;17.85;48.68;101444.25;4958552;28;1200;-52
2022/10/30 02:20:05;;;;;;;;;;;;;;;17.24;48.57;101436.38;4985398;28;1223;-51
2022/10/30 02:22:30;;;;;;;;;;;;;;;17.85;48.95;101435.13;4962157;28;1914;-51
2022/10/30 02:24:56;;;;;;;;;;;;;;;17.95;49.59;101435.25;4986594;28;1204;-51
2022/10/30 02:27:23;;;;;;;;;;;;;;;17.41;48.77;101433.47;4988916;28;1403;-49
2022/10/30 02:29:48;;;;;;;;;;;;;;;17.14;48.16;101434.38;4988038;28;2564;-51
2022/10/30 02:32:14;;;;;;;;;;;;;;;16.90;47.59;101439.34;4962303;29;1977;-50
2022/10/30 02:34:41;;;;;;;;;;;;;;;17.89;48.42;101430.75;4981217;28;1235;-49
2022/10/30 02:37:07;;;;;;;;;;;;;;;17.19;48.77;101430.81;4988040;28;1372;-52
2022/10/30 02:39:33;;;;;;;;;;;;;;;17.00;47.74;101433.13;4956296;28;1240;-51
2022/10/30 02:42:00;;;;;;;;;;;;;;;17.78;48.34;101433.47;4961344;28;1896;-51
2022/10/30 02:44:26;;;;;;;;;;;;;;;17.06;48.72;101426.59;4981009;28;1188;-48
2022/10/30 02:46:52;;;;;;;;;;;;;;;17.33;48.40;101436.72;4988571;28;1203;-52
2022/10/30 02:49:17;;;;;;;;;;;;;;;17.62;48.90;101418.78;4983024;28;1230;-50
2022/10/30 02:51:44;;;;;;;;;;;;;;;17.06;48.65;101434.84;4953811;29;1113;-51
2022/10/30 02:54:11;;;;;;;;;;;;;;;16.94;47.73;101437.72;4960406;28;1121;-52
2022/10/30 02:56:38;;;;;;;;;;;;;;;16.84;47.26;101426.63;4959142;28;1161;-51
2022/10/30 02:59:04;;;;;;;;;;;;;;;17.46;48.75;101430.78;4960111;28;2551;-50
2022/10/30 03:01:30;;;;;;;;;;;;;;;17.02;48.22;101434.50;4980400;28;1991;-51
2022/10/30 03:03:57;;;;;;;;;;;;;;;16.88;47.35;101436.84;4956371;29;1122;-51
2022/10/30 03:06:22;;;;;;;;;;;;;;;17.54;48.29;101433.00;4960128;28;1125;-48
2022/10/30 03:08:49;;;;;;;;;;;;;;;17.18;48.53;101430.00;4960362;28;1129;-49
2022/10/30 03:11:15;;;;;;;;;;;;;;;17.24;48.63;101431.69;4959830;28;1133;-46
2022/10/30 03:13:40;;;;;;;;;;;;;;;18.07;48.44;101430.34;4959975;28;1117;-50
2022/10/30 03:16:07;;;;;;;;;;;;;;;17.18;48.88;101429.16;4976826;28;1385;-49
2022/10/30 03:18:33;;;;;;;;;;;;;;;17.07;47.93;101439.25;4958523;29;1172;-47
2022/10/30 03:21:05;;;;;;;;;;;;;;;17.71;48.64;101438.38;4977022;28;1971;-50
2022/10/30 03:23:31;;;;;;;;;;;;;;;17.27;49.14;101427.59;4958267;28;1153;-48
2022/10/30 03:25:56;;;;;;;;;;;;;;;16.99;48.05;101434.22;4959966;28;1149;-51
2022/10/30 03:28:23;;;;;;;;;;;;;;;16.86;47.17;101429.94;4959252;28;1094;-51
2022/10/30 03:30:50;;;;;;;;;;;;;;;17.48;48.35;101423.09;4971038;28;1065;-48
2022/10/30 03:33:15;;;;;;;;;;;;;;;17.01;48.31;101418.28;4958676;29;1133;-50
2022/10/30 03:35:44;;;;;;;;;;;;;;;17.20;48.28;101427.00;4982084;28;1206;-48
2022/10/30 03:38:10;;;;;;;;;;;;;;;17.32;48.86;101435.03;4955090;29;1090;-48
2022/10/30 03:40:35;;;;;;;;;;;;;;;16.91;48.30;101425.38;4989429;28;1911;-49
2022/10/30 03:43:01;;;;;;;;;;;;;;;17.65;48.43;101422.91;4959240;28;1149;-49
2022/10/30 03:45:26;;;;;;;;;;;;;;;17.43;48.92;101425.78;4959297;28;1161;-50
2022/10/30 03:47:51;;;;;;;;;;;;;;;17.01;48.21;101430.13;4979536;28;1487;-50
2022/10/30 03:50:18;;;;;;;;;;;;;;;17.79;48.28;101415.88;4984321;28;1214;-49
2022/10/30 03:52:44;;;;;;;;;;;;;;;17.12;48.66;101413.72;4979189;28;1234;-52
2022/10/30 03:55:09;;;;;;;;;;;;;;;18.46;48.20;101413.41;4959121;28;1090;-50
2022/10/30 03:57:38;;;;;;;;;;;;;;;15.51;55.69;101410.09;4957848;29;1223;-53
2022/10/30 04:00:14;;;;;;;;;;;;;;;16.11;51.61;101405.75;4957637;29;2631;-50
2022/10/30 04:02:48;;;;;;;;;;;;;;;17.10;50.67;101400.25;4952201;28;1907;-51
2022/10/30 04:05:15;;;;;;;;;;;;;;;17.04;50.55;101404.88;4984385;28;1371;-48
2022/10/30 04:07:41;;;;;;;;;;;;;;;16.81;48.89;101408.75;4957499;29;1236;-50
2022/10/30 04:10:07;;;;;;;;;;;;;;;17.88;49.69;101404.34;4957468;28;1507;-48
2022/10/30 04:12:33;;;;;;;;;;;;;;;17.19;50.07;101404.16;4976361;28;1204;-50
2022/10/30 04:14:58;;;;;;;;;;;;;;;16.88;49.05;101403.88;4957743;29;1377;-52
2022/10/30 04:17:24;;;;;;;;;;;;;;;17.02;49.15;101398.78;4957358;29;1141;-50
2022/10/30 04:19:49;;;;;;;;;;;;;;;17.35;49.44;101402.38;4957316;29;1207;-51
2022/10/30 04:22:15;;;;;;;;;;;;;;;16.99;48.81;101412.25;4979712;28;1963;-51
2022/10/30 04:24:40;;;;;;;;;;;;;;;16.71;47.81;101409.47;4983579;28;1216;-51
2022/10/30 04:27:07;;;;;;;;;;;;;;;17.63;48.42;101408.63;4978144;28;1404;-52
2022/10/30 04:29:32;;;;;;;;;;;;;;;17.19;48.95;101408.84;4958041;28;1868;-48
2022/10/30 04:31:58;;;;;;;;;;;;;;;16.77;48.48;101402.94;4958936;28;1129;-50
2022/10/30 04:34:23;;;;;;;;;;;;;;;17.64;48.50;101399.25;4977921;28;1315;-53
2022/10/30 04:36:49;;;;;;;;;;;;;;;16.96;48.77;101391.63;4974008;28;1197;-51
2022/10/30 04:39:15;;;;;;;;;;;;;;;16.78;47.92;101406.50;4979983;28;1199;-50
2022/10/30 04:41:41;;;;;;;;;;;;;;;17.84;48.29;101405.97;4985725;28;1903;-48
2022/10/30 04:44:14;;;;;;;;;;;;;;;17.16;48.96;101414.84;4979952;28;1230;-51
2022/10/30 04:46:40;;;;;;;;;;;;;;;16.95;47.92;101403.69;4984644;28;1268;-52
2022/10/30 04:49:08;;;;;;;;;;;;;;;16.79;47.26;101415.56;4989484;28;1202;-51
2022/10/30 04:51:33;;;;;;;;;;;;;;;17.89;48.25;101400.50;4975813;28;1976;-48
2022/10/30 04:53:59;;;;;;;;;;;;;;;17.08;48.67;101413.41;4983016;28;1285;-51
2022/10/30 04:56:28;;;;;;;;;;;;;;;17.72;48.97;101407.00;4981055;28;1177;-51
2022/10/30 04:58:53;;;;;;;;;;;;;;;17.87;49.15;101409.03;4956301;29;2199;-51
2022/10/30 05:01:18;;;;;;;;;;;;;;;17.17;49.12;101406.34;4956869;29;1899;-49
2022/10/30 05:03:44;;;;;;;;;;;;;;;17.65;49.23;101409.16;4975260;28;1182;-50
2022/10/30 05:06:20;;;;;;;;;;;;;;;17.34;49.48;101406.22;4956099;29;1251;-50
2022/10/30 05:08:46;;;;;;;;;;;;;;;17.09;48.30;101404.91;4973973;28;1121;-51
2022/10/30 05:11:23;;;;;;;;;;;;;;;16.90;47.39;101418.22;4978080;28;1335;-50
2022/10/30 05:13:48;;;;;;;;;;;;;;;17.71;48.60;101410.88;4957584;28;1129;-52
2022/10/30 05:16:15;;;;;;;;;;;;;;;17.02;48.72;101409.78;4956179;29;1325;-50
2022/10/30 05:18:41;;;;;;;;;;;;;;;17.16;48.53;101403.88;4988861;28;1091;-52
2022/10/30 05:21:06;;;;;;;;;;;;;;;17.25;49.15;101405.88;4970125;28;1960;-52
2022/10/30 05:23:32;;;;;;;;;;;;;;;16.84;48.27;101396.41;4979888;28;1369;-52
2022/10/30 05:26:01;;;;;;;;;;;;;;;16.85;47.71;101407.13;4974808;28;1301;-52
2022/10/30 05:28:28;;;;;;;;;;;;;;;17.95;48.39;101404.97;4980231;28;2404;-52
2022/10/30 05:30:55;;;;;;;;;;;;;;;17.16;48.54;101412.13;4956076;29;1167;-50
2022/10/30 05:33:47;;;;;;;;;;;;;;;16.97;47.49;101417.16;4930540;29;1043;-52
2022/10/30 05:36:12;;;;;;;;;;;;;;;17.26;48.35;101410.28;4976039;28;1160;-50
2022/10/30 05:38:39;;;;;;;;;;;;;;;17.37;48.74;101400.19;4974431;28;1427;-53
2022/10/30 05:41:08;;;;;;;;;;;;;;;16.97;48.25;101411.66;4980353;28;1968;-49
2022/10/30 05:43:34;;;;;;;;;;;;;;;17.03;48.58;101411.44;4956451;29;1169;-50
2022/10/30 05:45:59;;;;;;;;;;;;;;;17.52;48.69;101409.66;4979168;28;1209;-52
2022/10/30 05:48:25;;;;;;;;;;;;;;;16.98;48.51;101405.91;4953439;29;1209;-53
2022/10/30 05:50:50;;;;;;;;;;;;;;;16.97;48.36;101411.66;4988475;28;1183;-53
2022/10/30 05:53:25;;;;;;;;;;;;;;;17.52;48.59;101406.91;4957232;28;1157;-49
2022/10/30 05:55:56;;;;;;;;;;;;;;;17.03;48.18;101414.19;4956590;28;1137;-51
2022/10/30 05:58:23;;;;;;;;;;;;;;;17.49;48.50;101416.50;4975342;28;1378;-53
2022/10/30 06:00:49;;;;;;;;;;;;;;;17.22;48.82;101405.56;4955961;29;1899;-53
2022/10/30 06:03:22;;;;;;;;;;;;;;;16.97;48.06;101400.66;4975894;28;1663;-53
2022/10/30 06:05:48;;;;;;;;;;;;;;;17.57;48.48;101404.16;4968763;28;1484;-51
2022/10/30 06:08:18;;;;;;;;;;;;;;;17.28;48.74;101410.84;4977323;28;1221;-51
2022/10/30 06:10:46;;;;;;;;;;;;;;;16.87;48.12;101412.38;4942618;29;1387;-47
2022/10/30 06:13:14;;;;;;;;;;;;;;;16.69;47.37;101408.91;4981683;28;1717;-49
2022/10/30 06:16:06;;;;;;;;;;;;;;;17.16;48.74;101398.38;4948048;28;2277;-49
2022/10/30 06:18:52;;;;;;;;;;;;;;;17.20;48.74;101405.00;4950239;29;1219;-54
2022/10/30 06:21:17;;;;;;;;;;;;;;;18.50;47.98;101405.47;4940895;29;1966;-47
2022/10/30 06:23:54;;;;;;;;;;;;;;;17.44;49.14;101420.00;4942137;29;1114;-46
2022/10/30 06:26:36;;;;;;;;;;;;;;;17.05;48.22;101417.50;4940993;29;1364;-46
2022/10/30 06:29:07;;;;;;;;;;;;;;;17.83;48.46;101415.34;4925506;29;1367;-44
2022/10/30 06:31:33;;;;;;;;;;;;;;;17.19;48.74;101409.66;4959842;29;1281;-48
2022/10/30 06:33:59;;;;;;;;;;;;;;;16.87;48.56;101413.22;4959903;29;1288;-46
2022/10/30 06:36:25;;;;;;;;;;;;;;;17.97;46.84;101413.78;4959955;29;1111;-47
2022/10/30 06:38:52;;;;;;;;;;;;;;;17.39;48.33;101413.66;4959675;29;1107;-45
2022/10/30 06:41:20;;;;;;;;;;;;;;;17.12;49.26;101409.03;4959862;29;1973;-45
2022/10/30 06:44:04;;;;;;;;;;;;;;;16.95;50.02;101419.34;4960745;29;672;-46
2022/10/30 06:46:30;;;;;;;;;;;;;;;16.76;50.56;101423.25;4961248;28;746;-48
2022/10/30 06:48:56;;;;;;;;;;;;;;;16.68;50.66;101414.66;4959454;29;1120;-49
2022/10/30 06:51:22;;;;;;;;;;;;;;;16.56;50.98;101417.53;4959687;28;1211;-49
2022/10/30 06:53:51;;;;;;;;;;;;;;;16.45;51.52;101419.34;4959218;29;1149;-47
2022/10/30 06:56:39;;;;;;;;;;;;;;;16.32;51.86;101409.59;4960300;29;1206;-50
2022/10/30 06:59:08;;;;;;;;;;;;;;;16.25;51.94;101408.94;4960226;28;707;-49
2022/10/30 07:01:56;;;;;;;;;;;;;;;16.16;52.25;101408.56;4959329;29;1914;-50
2022/10/30 07:04:23;;;;;;;;;;;;;;;16.07;52.25;101407.34;4960672;28;759;-50
2022/10/30 07:06:48;;;;;;;;;;;;;;;16.01;52.40;101411.13;4958968;29;1359;-50
2022/10/30 07:09:16;;;;;;;;;;;;;;;15.92;52.51;101407.97;4959070;28;1366;-48
2022/10/30 07:11:44;;;;;;;;;;;;;;;15.88;52.75;101398.63;4960703;28;782;-50
2022/10/30 07:14:15;;;;;;;;;;;;;;;15.86;52.81;101404.34;4960229;28;644;-48
2022/10/30 07:16:59;;;;;;;;;;;;;;;17.37;49.70;101397.44;4959269;28;2135;-47
2022/10/30 07:19:26;;;;;;;;;;;;;;;16.56;51.40;101395.56;4958153;29;1278;-48
2022/10/30 07:21:53;;;;;;;;;;;;;;;16.22;52.36;101396.56;4958990;29;1910;-47
2022/10/30 07:24:19;;;;;;;;;;;;;;;16.13;52.54;101397.28;4960210;28;1186;-50
2022/10/30 07:26:54;;;;;;;;;;;;;;;16.02;52.90;101397.16;4959784;28;814;-48
2022/10/30 07:29:42;;;;;;;;;;;;;;;15.88;53.15;101401.38;4956250;29;1584;-49
2022/10/30 07:32:11;;;;;;;;;;;;;;;17.15;50.66;101391.22;4959933;28;915;-48
2022/10/30 07:34:56;;;;;;;;;;;;;;;16.89;50.93;101378.09;4959914;29;613;-50
2022/10/30 07:37:30;;;;;;;;;;;;;;;16.37;52.47;101384.94;4958846;29;1169;-46
2022/10/30 07:40:08;;;;;;;;;;;;;;;16.17;52.84;101376.47;4958535;29;1100;-48
2022/10/30 07:42:57;;;;;;;;;;;;;;;16.07;53.00;101369.78;4959575;28;1614;-49
2022/10/30 07:45:37;;;;;;;;;;;;;;;17.11;50.96;101368.94;4959656;28;878;-50
2022/10/30 07:48:21;;;;;;;;;;;;;;;16.80;51.49;101359.56;4959633;29;617;-48
2022/10/30 07:51:06;;;;;;;;;;;;;;;16.36;52.71;101364.06;4959103;29;1189;-49
2022/10/30 07:53:32;;;;;;;;;;;;;;;16.18;53.21;101357.00;4958534;29;1222;-49
2022/10/30 07:55:58;;;;;;;;;;;;;;;16.07;53.18;101356.06;4957789;29;1125;-50
2022/10/30 07:58:42;;;;;;;;;;;;;;;15.99;53.43;101347.44;4959452;29;677;-49
2022/10/30 08:01:26;;;;;;;;;;;;;;;17.44;50.24;101356.78;4959018;29;1914;-46
2022/10/30 08:03:54;;;;;;;;;;;;;;;16.76;51.84;101343.63;4958305;28;1449;-50
2022/10/30 08:06:26;;;;;;;;;;;;;;;16.39;52.80;101330.63;4939194;29;2224;-48
2022/10/30 08:08:52;;;;;;;;;;;;;;;16.19;53.20;101325.75;4984866;28;2117;-47
2022/10/30 08:11:27;;;;;;;;;;;;;;;16.04;53.37;101326.38;4958918;28;2265;-49
2022/10/30 08:13:53;;;;;;;;;;;;;;;16.30;53.22;101321.22;4957643;28;2192;-49
2022/10/30 08:16:19;;;;;;;;;;;;;;;17.46;50.11;101312.56;4957445;28;2142;-48
2022/10/30 08:18:44;;;;;;;;;;;;;;;16.68;51.96;101311.13;4957396;29;2129;-47
2022/10/30 08:21:10;;;;;;;;;;;;;;;16.37;52.82;101319.09;4957331;28;2327;-48
2022/10/30 08:23:42;;;;;;;;;;;;;;;16.14;53.48;101311.97;4957725;29;1404;-49
2022/10/30 08:26:12;;;;;;;;;;;;;;;16.05;53.66;101317.09;4957661;29;1363;-50
2022/10/30 08:28:38;;;;;;;;;;;;;;;15.95;53.65;101322.47;4957651;29;854;-46
2022/10/30 08:31:07;;;;;;;;;;;;;;;15.90;53.70;101323.22;4957263;29;1338;-48
2022/10/30 08:34:02;;;;;;;;;;;;;;;15.85;53.89;101314.09;4939868;28;1210;-48
2022/10/30 08:36:35;;;;;;;;;;;;;;;16.71;52.47;101307.84;4957114;29;1103;-47
2022/10/30 08:39:02;;;;;;;;;;;;;;;17.34;50.65;101312.75;4957265;28;1200;-47
2022/10/30 08:41:51;;;;;;;;;;;;;;;16.52;52.94;101307.44;4948488;28;1976;-50
2022/10/30 08:44:18;;;;;;;;;;;;;;;16.24;53.35;101311.25;4956898;29;1198;-47
2022/10/30 08:47:02;;;;;;;;;;;;;;;16.09;53.64;101298.22;4958656;29;637;-48
2022/10/30 08:49:28;;;;;;;;;;;;;;;15.99;53.86;101301.66;4956987;29;799;-51
2022/10/30 08:51:56;;;;;;;;;;;;;;;16.99;51.96;101305.09;4957367;28;2553;-47
2022/10/30 08:54:21;;;;;;;;;;;;;;;17.00;51.55;101291.09;4957863;28;925;-49
2022/10/30 08:56:47;;;;;;;;;;;;;;;16.46;53.09;101296.66;4956933;29;1236;-47
2022/10/30 08:59:14;;;;;;;;;;;;;;;16.23;53.45;101296.72;4957042;29;1159;-46
2022/10/30 09:01:39;;;;;;;;;;;;;;;16.13;53.92;101295.75;4956525;29;1968;-50
2022/10/30 09:04:14;;;;;;;;;;;;;;;16.22;53.94;101277.75;4957735;28;660;-50
2022/10/30 09:06:45;;;;;;;;;;;;;;;17.35;50.94;101281.41;4957284;28;1074;-50
2022/10/30 09:09:40;;;;;;;;;;;;;;;16.52;52.83;101273.63;4958078;28;1187;-47
2022/10/30 09:12:06;;;;;;;;;;;;;;;16.35;53.49;101273.75;4956661;29;1303;-48
2022/10/30 09:14:40;;;;;;;;;;;;;;;16.18;53.79;101271.13;4956536;28;1212;-49
2022/10/30 09:17:07;;;;;;;;;;;;;;;16.05;54.14;101269.63;4956335;29;1151;-50
2022/10/30 09:19:34;;;;;;;;;;;;;;;15.98;54.22;101264.34;4953574;29;1188;-50
2022/10/30 09:22:00;;;;;;;;;;;;;;;16.72;52.64;101253.78;4956068;29;1975;-49
2022/10/30 09:24:26;;;;;;;;;;;;;;;17.24;51.33;101255.78;4956093;29;1312;-47
2022/10/30 09:26:51;;;;;;;;;;;;;;;16.51;52.94;101248.13;4956434;29;1109;-48
2022/10/30 09:29:22;;;;;;;;;;;;;;;16.29;53.83;101244.63;4956613;29;1330;-48
2022/10/30 09:31:57;;;;;;;;;;;;;;;16.16;53.86;101241.22;4957706;28;843;-48
2022/10/30 09:34:24;;;;;;;;;;;;;;;16.05;54.16;101243.03;4956303;29;1243;-49
2022/10/30 09:36:57;;;;;;;;;;;;;;;17.56;50.44;101232.84;4956252;29;1188;-49
2022/10/30 09:39:24;;;;;;;;;;;;;;;16.90;52.27;101230.56;4956597;29;1156;-50
2022/10/30 09:42:09;;;;;;;;;;;;;;;16.50;53.16;101221.75;4956464;29;1907;-50
2022/10/30 09:44:57;;;;;;;;;;;;;;;16.32;53.56;101209.25;4956410;29;1101;-47
2022/10/30 09:47:42;;;;;;;;;;;;;;;16.22;54.02;101209.16;4940191;29;2082;-51
2022/10/30 09:50:10;;;;;;;;;;;;;;;16.12;54.26;101214.53;4957615;28;1334;-49
2022/10/30 09:52:42;;;;;;;;;;;;;;;16.06;54.04;101200.78;4959974;29;2658;-50
2022/10/30 09:55:28;;;;;;;;;;;;;;;16.02;54.32;101194.16;4959993;29;1174;-49
2022/10/30 09:58:12;;;;;;;;;;;;;;;17.53;50.81;101188.56;4960945;29;1200;-50
2022/10/30 10:00:40;;;;;;;;;;;;;;;16.75;52.70;101182.66;4959886;29;1906;-49
2022/10/30 10:03:33;;;;;;;;;;;;;;;16.43;53.70;101177.22;4959507;29;1374;-45
2022/10/30 10:06:31;;;;;;;;;;;;;;;16.20;54.28;101181.13;4961191;29;1205;-48
2022/10/30 10:09:19;;;;;;;;;;;;;;;16.13;54.40;101184.13;4942363;29;1128;-49
2022/10/30 10:12:04;;;;;;;;;;;;;;;16.41;53.81;101172.00;4972960;28;956;-49
2022/10/30 10:14:34;;;;;;;;;;;;;;;17.19;51.62;101176.06;4988885;28;1280;-50
2022/10/30 10:17:00;;;;;;;;;;;;;;;16.57;53.43;101177.59;4960006;29;1058;-48
2022/10/30 10:19:34;;;;;;;;;;;;;;;16.30;53.97;101173.00;4960862;28;981;-45
2022/10/30 10:22:00;;;;;;;;;;;;;;;16.19;54.34;101165.78;4960870;28;2559;-50
2022/10/30 10:24:29;;;;;;;;;;;;;;;16.05;54.56;101160.72;4960981;28;1208;-50
2022/10/30 10:27:04;;;;;;;;;;;;;;;16.56;53.75;101163.06;4960931;28;715;-50
2022/10/30 10:29:32;;;;;;;;;;;;;;;17.18;51.91;101165.34;4960879;28;925;-50
2022/10/30 10:32:10;;;;;;;;;;;;;;;16.53;53.59;101160.00;4960084;28;1170;-49
2022/10/30 10:34:38;;;;;;;;;;;;;;;16.26;54.35;101144.44;4958123;29;1205;-55
2022/10/30 10:37:22;;;;;;;;;;;;;;;16.22;54.15;101148.78;4960717;28;858;-48
2022/10/30 10:39:48;;;;;;;;;;;;;;;16.08;54.52;101142.91;4960898;28;850;-46
2022/10/30 10:42:16;;;;;;;;;;;;;;;16.06;54.45;101148.66;4961482;28;1902;-48
2022/10/30 10:44:47;;;;;;;;;;;;;;;16.34;54.02;101141.22;4966390;28;899;-45
2022/10/30 10:47:31;;;;;;;;;;;;;;;17.44;51.13;101142.34;4959393;29;793;-46
2022/10/30 10:50:17;;;;;;;;;;;;;;;16.62;53.64;101141.97;4960648;28;747;-47
2022/10/30 10:52:47;;;;;;;;;;;;;;;16.34;54.14;101135.72;4958821;29;2633;-49
2022/10/30 10:55:16;;;;;;;;;;;;;;;16.24;54.46;101130.13;4959322;28;1204;-45
2022/10/30 10:57:41;;;;;;;;;;;;;;;16.11;54.37;101127.84;4958524;29;1416;-47
2022/10/30 11:00:09;;;;;;;;;;;;;;;16.02;54.63;101133.81;4958393;28;1248;-47
2022/10/30 11:02:44;;;;;;;;;;;;;;;17.42;51.68;101121.75;4941373;29;1910;-45
2022/10/30 11:05:12;;;;;;;;;;;;;;;16.85;52.96;101117.91;4959113;29;841;-46
2022/10/30 11:07:47;;;;;;;;;;;;;;;16.45;54.27;101120.13;4959586;28;862;-42
2022/10/30 11:10:13;;;;;;;;;;;;;;;16.30;54.53;101112.66;4960488;28;766;-44
2022/10/30 11:12:39;;;;;;;;;;;;;;;16.20;54.66;101107.91;4960364;28;803;-47
2022/10/30 11:15:13;;;;;;;;;;;;;;;16.09;54.60;101103.44;4959449;28;1264;-48
2022/10/30 11:17:41;;;;;;;;;;;;;;;16.18;54.71;101098.28;4962139;28;1005;-49
2022/10/30 11:20:24;;;;;;;;;;;;;;;17.53;51.43;101100.56;4957753;28;909;-48
2022/10/30 11:22:50;;;;;;;;;;;;;;;16.63;53.63;101088.69;4967638;28;2552;-47
2022/10/30 11:25:19;;;;;;;;;;;;;;;16.42;54.23;101090.47;4959461;28;1091;-48
2022/10/30 11:28:03;;;;;;;;;;;;;;;16.27;54.47;101076.66;4959795;28;909;-47
2022/10/30 11:30:29;;;;;;;;;;;;;;;16.20;54.39;101079.63;4971808;28;1193;-48
2022/10/30 11:32:55;;;;;;;;;;;;;;;16.05;54.91;101081.16;4966870;28;881;-44
2022/10/30 11:35:20;;;;;;;;;;;;;;;16.91;52.99;101073.75;4959436;28;830;-47
2022/10/30 11:37:49;;;;;;;;;;;;;;;16.96;52.93;101074.84;4959542;28;827;-47
2022/10/30 11:40:19;;;;;;;;;;;;;;;16.50;54.30;101072.69;4958528;28;1157;-45
2022/10/30 11:42:46;;;;;;;;;;;;;;;16.30;54.68;101067.88;4959095;28;1906;-44
2022/10/30 11:45:37;;;;;;;;;;;;;;;16.16;54.80;101062.03;4958424;29;923;-46
2022/10/30 11:48:07;;;;;;;;;;;;;;;16.11;54.88;101053.78;4957695;28;1628;-46
2022/10/30 11:50:33;;;;;;;;;;;;;;;16.06;54.99;101060.88;4959377;28;1601;-47
2022/10/30 11:52:59;;;;;;;;;;;;;;;15.97;55.01;101059.72;4959294;28;2798;-48
2022/10/30 11:55:34;;;;;;;;;;;;;;;15.91;54.81;101052.53;4959297;28;834;-47
2022/10/30 11:57:59;;;;;;;;;;;;;;;15.85;54.94;101050.84;4958769;28;894;-44
2022/10/30 12:00:25;;;;;;;;;;;;;;;17.02;53.05;101052.63;4957932;29;734;-44
2022/10/30 12:02:52;;;;;;;;;;;;;;;17.02;52.91;101051.81;4958226;29;1903;-48
2022/10/30 12:05:26;;;;;;;;;;;;;;;16.48;54.48;101052.91;4957999;29;842;-46
2022/10/30 12:07:52;;;;;;;;;;;;;;;16.26;54.58;101034.69;4958807;28;862;-48
2022/10/30 12:10:24;;;;;;;;;;;;;;;16.13;54.97;101040.63;4959070;28;894;-48
2022/10/30 12:12:49;;;;;;;;;;;;;;;16.08;54.84;101044.16;4959170;28;1175;-46
2022/10/30 12:15:15;;;;;;;;;;;;;;;16.04;55.11;101040.28;4957044;28;956;-48
2022/10/30 12:17:41;;;;;;;;;;;;;;;17.47;52.13;101032.94;4958021;28;1097;-44
2022/10/30 12:20:07;;;;;;;;;;;;;;;16.89;53.20;101036.66;4956667;29;1158;-47
2022/10/30 12:22:32;;;;;;;;;;;;;;;16.42;54.51;101022.72;4957429;29;2500;-47
2022/10/30 12:25:06;;;;;;;;;;;;;;;16.34;54.81;101025.09;4958937;28;854;-46
2022/10/30 12:27:33;;;;;;;;;;;;;;;16.24;55.01;101036.84;4957821;29;1060;-45
2022/10/30 12:30:01;;;;;;;;;;;;;;;16.13;54.79;101035.13;4957497;29;795;-44
2022/10/30 12:32:27;;;;;;;;;;;;;;;16.06;55.14;101032.59;4957809;29;1175;-48
2022/10/30 12:34:56;;;;;;;;;;;;;;;15.99;55.03;101038.34;4957466;29;870;-48
2022/10/30 12:37:25;;;;;;;;;;;;;;;15.95;55.30;101029.00;4957673;29;831;-46
2022/10/30 12:40:03;;;;;;;;;;;;;;;17.27;52.81;101034.56;4957571;28;985;-47
2022/10/30 12:42:29;;;;;;;;;;;;;;;16.90;53.58;101035.53;4958562;28;1911;-45
2022/10/30 12:45:04;;;;;;;;;;;;;;;16.49;54.41;101027.94;4958825;28;863;-46
2022/10/30 12:47:32;;;;;;;;;;;;;;;16.36;54.57;101022.94;4958826;28;850;-46
2022/10/30 12:49:58;;;;;;;;;;;;;;;16.24;54.79;101034.09;4958372;28;802;-48
2022/10/30 12:52:27;;;;;;;;;;;;;;;16.16;55.19;101038.19;4958165;28;2578;-47
2022/10/30 12:55:12;;;;;;;;;;;;;;;16.05;55.25;101034.53;4956166;28;871;-45
2022/10/30 12:57:42;;;;;;;;;;;;;;;16.01;55.12;101044.38;4957218;29;894;-42
2022/10/30 13:00:14;;;;;;;;;;;;;;;17.47;52.10;101052.19;4959057;28;771;-47
2022/10/30 13:02:40;;;;;;;;;;;;;;;16.99;53.35;101047.69;4958335;28;1977;-42